Terminal Aerodrome Forecast
Issued by NWS

Home | Current Version | Previous Version | Text Only | Print | Product List | Glossary On
Versions: 1 2 3 4 5 6 7 8 9 10 11 12 13 14 15 16 17
000
FTUS46 KSGX 312328
TAFCRQ
TAF
KCRQ 312328Z 0100/0124 25006KT P6SM SCT007
     FM010600 VRB03KT 3SM BR VCFG OVC004
     FM011100 VRB03KT 1/2SM FG OVC002
     FM011500 VRB04KT 2SM BR BKN004
     FM011700 VRB06KT 6SM HZ SCT005
     FM012000 25008KT P6SM FEW008=

USA.gov is the U.S. government's official web portal to all federal, state and local government web resources and services.